Time;durP1;ratioP1;P1;durP2;ratioP2;P2;SDS_P1;SDS_P2;PMS_P1;PMS_P2;Temp;Humidity;BMP_temperature;BMP_pressure;BME280_temperature;BME280_humidity;BME280_pressure;Samples;Min_cycle;Max_cycle;Signal;HPM_P1;HPM_P2
2021/11/13 00:04:58;;;;;;;40.15;26.08;;;;;;;7.72;100.00;100826.47;10559324;28;20051;-81
2021/11/13 00:10:00;;;;;;;38.35;26.00;;;;;;;7.73;100.00;100825.66;10547820;28;20399;-79
2021/11/13 00:15:04;;;;;;;45.03;27.60;;;;;;;7.74;100.00;100810.22;10558750;28;20475;-80
2021/11/13 00:20:06;;;;;;;42.08;25.08;;;;;;;7.73;100.00;100798.19;10587359;28;20487;-79
2021/11/13 00:25:08;;;;;;;43.80;29.42;;;;;;;7.72;100.00;100804.19;10566093;28;20388;-81
2021/11/13 00:30:12;;;;;;;43.63;28.17;;;;;;;7.78;100.00;100795.75;10555719;28;20047;-81
2021/11/13 00:35:14;;;;;;;40.72;25.77;;;;;;;7.83;100.00;100789.00;10564615;28;20052;-81
2021/11/13 00:40:19;;;;;;;39.83;26.35;;;;;;;7.81;100.00;100783.78;10550763;28;20048;-81
2021/11/13 00:45:21;;;;;;;38.97;26.30;;;;;;;7.83;100.00;100784.72;10563706;28;20506;-82
2021/11/13 00:50:23;;;;;;;35.25;24.63;;;;;;;7.83;100.00;100768.41;10545172;28;20052;-81
2021/11/13 00:55:25;;;;;;;41.58;26.80;;;;;;;7.85;100.00;100780.47;10585722;28;20502;-82
2021/11/13 01:00:26;;;;;;;47.70;28.75;;;;;;;7.87;100.00;100767.63;10572853;28;20070;-81
2021/11/13 01:05:31;;;;;;;40.15;24.25;;;;;;;7.92;100.00;100763.44;10557342;28;20054;-82
2021/11/13 01:10:33;;;;;;;37.55;24.80;;;;;;;7.90;100.00;100767.72;10546348;28;20066;-84
2021/11/13 01:15:35;;;;;;;33.72;22.95;;;;;;;7.91;100.00;100761.72;10573845;28;20051;-80
2021/11/13 01:20:36;;;;;;;36.53;21.90;;;;;;;7.88;100.00;100759.91;10567575;28;20396;-81
2021/11/13 01:25:39;;;;;;;32.28;20.98;;;;;;;7.90;100.00;100747.97;10576348;28;20048;-82
2021/11/13 01:30:40;;;;;;;34.55;23.00;;;;;;;7.94;100.00;100744.66;10559179;28;20046;-82
2021/11/13 01:35:42;;;;;;;33.88;21.75;;;;;;;7.98;100.00;100743.00;10576176;28;20051;-82
2021/11/13 01:40:44;;;;;;;33.85;21.23;;;;;;;7.98;100.00;100755.88;10579094;28;20396;-82
2021/11/13 01:45:46;;;;;;;34.42;21.85;;;;;;;8.04;100.00;100744.84;10559296;28;20060;-82
2021/11/13 01:50:47;;;;;;;33.75;21.50;;;;;;;8.08;100.00;100728.63;10552715;28;20124;-83
2021/11/13 01:55:50;;;;;;;32.10;22.25;;;;;;;8.10;100.00;100732.09;10554932;28;20070;-81
2021/11/13 02:00:57;;;;;;;32.60;22.52;;;;;;;8.10;100.00;100726.94;10556595;28;20044;-82
2021/11/13 02:05:59;;;;;;;34.47;21.85;;;;;;;8.10;100.00;100721.78;10539180;28;20050;-83
2021/11/13 02:11:01;;;;;;;36.47;22.83;;;;;;;8.14;100.00;100723.59;10550299;28;20052;-82
2021/11/13 02:16:02;;;;;;;30.25;21.35;;;;;;;8.11;100.00;100719.28;10550002;28;20064;-81
2021/11/13 02:21:05;;;;;;;27.08;20.65;;;;;;;8.18;100.00;100709.97;10570750;28;20050;-83
2021/11/13 02:26:07;;;;;;;31.48;19.90;;;;;;;8.17;100.00;100706.53;10538216;28;20047;-81
2021/11/13 02:31:11;;;;;;;31.52;21.58;;;;;;;8.15;100.00;100704.72;10563884;28;20461;-83
2021/11/13 02:36:13;;;;;;;28.05;17.80;;;;;;;8.18;100.00;100697.09;10568843;28;20055;-81
2021/11/13 02:41:17;;;;;;;34.10;22.95;;;;;;;8.24;100.00;100697.22;10546980;28;20048;-80
2021/11/13 02:46:18;;;;;;;27.15;19.10;;;;;;;8.26;100.00;100700.69;10526274;28;20055;-81
2021/11/13 02:51:20;;;;;;;27.25;18.38;;;;;;;8.29;100.00;100693.03;10546096;28;20077;-81
2021/11/13 02:56:22;;;;;;;25.35;20.33;;;;;;;8.35;100.00;100692.28;10540666;28;20055;-82
2021/11/13 03:01:24;;;;;;;30.33;20.27;;;;;;;8.42;100.00;100687.31;10534200;28;20051;-81
2021/11/13 03:06:26;;;;;;;25.50;20.02;;;;;;;8.38;100.00;100689.81;10561858;28;20059;-81
2021/11/13 03:11:28;;;;;;;29.17;20.45;;;;;;;8.39;100.00;100701.84;10558872;28;20454;-81
2021/11/13 03:16:29;;;;;;;32.08;23.05;;;;;;;8.40;100.00;100694.16;10538947;28;20044;-80
2021/11/13 03:21:31;;;;;;;35.78;25.23;;;;;;;8.44;100.00;100700.25;10521980;28;20048;-80
2021/11/13 03:26:33;;;;;;;37.20;23.67;;;;;;;8.45;100.00;100704.53;10552695;28;20040;-80
2021/11/13 03:31:35;;;;;;;36.55;24.48;;;;;;;8.53;100.00;100691.84;10564432;28;20047;-80
2021/11/13 03:36:37;;;;;;;36.33;24.75;;;;;;;8.52;100.00;100692.69;10568418;28;20058;-80
2021/11/13 03:41:38;;;;;;;33.08;24.30;;;;;;;8.53;100.00;100687.56;10570452;28;20052;-80
2021/11/13 03:46:40;;;;;;;36.30;24.95;;;;;;;8.54;100.00;100696.16;10537272;28;20055;-80
2021/11/13 03:51:41;;;;;;;44.00;28.42;;;;;;;8.56;100.00;100694.47;10550350;28;20051;-79
2021/11/13 03:56:43;;;;;;;41.65;28.52;;;;;;;8.57;100.00;100691.06;10550354;28;20048;-80
2021/11/13 04:01:44;;;;;;;42.92;26.80;;;;;;;8.63;100.00;100691.19;10560170;28;20058;-82
2021/11/13 04:06:46;;;;;;;43.13;27.55;;;;;;;8.60;100.00;100694.56;10555488;28;20365;-81
2021/11/13 04:11:48;;;;;;;36.03;22.15;;;;;;;8.72;100.00;100699.09;10566247;28;20134;-79
2021/11/13 04:16:49;;;;;;;32.80;22.42;;;;;;;8.71;100.00;100690.50;10577763;28;20055;-79
2021/11/13 04:21:51;;;;;;;30.13;21.67;;;;;;;8.68;100.00;100698.19;10567134;28;20052;-80
2021/11/13 04:26:52;;;;;;;33.97;22.98;;;;;;;8.77;100.00;100703.50;10551110;28;20044;-79
2021/11/13 04:31:54;;;;;;;30.40;20.45;;;;;;;8.71;100.00;100705.97;10548386;28;20052;-79
2021/11/13 04:36:59;;;;;;;30.05;21.63;;;;;;;8.71;100.00;100711.13;10545968;28;20059;-80
2021/11/13 04:42:01;;;;;;;31.85;23.17;;;;;;;8.71;100.00;100723.16;10542695;28;20552;-80
2021/11/13 04:47:04;;;;;;;32.08;21.75;;;;;;;8.69;100.00;100727.41;10558217;28;20044;-83
2021/11/13 04:52:07;;;;;;;25.98;18.95;;;;;;;8.66;100.00;100723.03;10573198;28;20142;-83
2021/11/13 04:57:09;;;;;;;27.75;18.15;;;;;;;8.71;100.00;100734.34;10569062;28;20048;-83
2021/11/13 05:02:10;;;;;;;27.95;20.05;;;;;;;8.68;100.00;100730.84;10546741;28;20059;-83
2021/11/13 05:07:12;;;;;;;29.23;20.80;;;;;;;8.69;100.00;100737.72;10551748;28;20055;-83
2021/11/13 05:12:13;;;;;;;28.40;19.73;;;;;;;8.68;100.00;100733.41;10549332;28;20052;-83
2021/11/13 05:17:15;;;;;;;23.52;18.42;;;;;;;8.67;100.00;100745.41;10550995;28;20492;-84
2021/11/13 05:22:17;;;;;;;24.70;18.67;;;;;;;8.69;100.00;100745.47;10543517;28;20063;-84
2021/11/13 05:27:19;;;;;;;24.35;18.80;;;;;;;8.67;100.00;100753.16;10553938;28;20384;-84
2021/11/13 05:32:20;;;;;;;24.52;18.10;;;;;;;8.70;100.00;100767.84;10548945;28;20142;-81
2021/11/13 05:37:22;;;;;;;31.73;20.02;;;;;;;8.66;100.00;100772.03;10584506;28;20059;-78
2021/11/13 05:42:24;;;;;;;31.02;21.25;;;;;;;8.63;100.00;100777.16;10545268;28;20459;-78
2021/11/13 05:47:26;;;;;;;31.48;20.40;;;;;;;8.72;100.00;100773.88;10557388;28;20047;-79
2021/11/13 05:52:27;;;;;;;25.88;19.20;;;;;;;8.68;100.00;100769.53;10541017;28;20051;-79
2021/11/13 05:57:29;;;;;;;26.15;19.65;;;;;;;8.74;100.00;100767.94;10537256;28;20543;-79
2021/11/13 06:02:30;;;;;;;28.15;20.10;;;;;;;8.81;100.00;100768.06;10581391;28;20058;-79
2021/11/13 06:07:32;;;;;;;32.63;22.02;;;;;;;8.89;100.00;100767.38;10537769;28;20046;-81
2021/11/13 06:12:34;;;;;;;36.25;22.48;;;;;;;8.88;100.00;100757.03;10575307;28;20075;-81
2021/11/13 06:17:37;;;;;;;38.72;22.88;;;;;;;8.83;100.00;100769.81;10530530;28;20040;-81
2021/11/13 06:22:39;;;;;;;40.00;25.10;;;;;;;8.82;100.00;100768.09;10544685;28;20411;-82
2021/11/13 06:27:42;;;;;;;40.90;26.15;;;;;;;8.82;100.00;100778.41;10570266;28;20483;-83
2021/11/13 06:32:45;;;;;;;44.90;28.58;;;;;;;8.84;100.00;100788.75;10562733;28;20051;-82
2021/11/13 06:37:47;;;;;;;45.83;27.67;;;;;;;8.78;100.00;100779.16;10568982;28;20359;-82
2021/11/13 06:42:49;;;;;;;41.20;27.65;;;;;;;8.76;100.00;100786.00;10580967;28;20561;-82
2021/11/13 06:47:50;;;;;;;44.58;27.75;;;;;;;8.74;100.00;100795.44;10545066;28;20066;-82
2021/11/13 06:52:52;;;;;;;40.05;26.42;;;;;;;8.77;100.00;100798.06;10560341;28;20048;-82
2021/11/13 06:57:54;;;;;;;46.08;27.83;;;;;;;8.74;100.00;100801.47;10544454;28;20054;-82
2021/11/13 07:02:59;;;;;;;41.55;27.13;;;;;;;8.76;100.00;100802.34;10538711;28;20066;-82
2021/11/13 07:08:01;;;;;;;44.23;26.27;;;;;;;8.81;100.00;100814.50;10532663;28;20079;-82
2021/11/13 07:13:03;;;;;;;43.47;28.17;;;;;;;8.80;100.00;100829.09;10532445;28;20067;-81
2021/11/13 07:18:05;;;;;;;39.03;25.83;;;;;;;8.85;100.00;100836.91;10537489;28;20150;-81
2021/11/13 07:23:06;;;;;;;42.95;27.80;;;;;;;8.84;100.00;100833.47;10535555;28;20047;-81
2021/11/13 07:28:13;;;;;;;41.25;27.73;;;;;;;8.88;100.00;100839.56;10537031;28;20056;-82
2021/11/13 07:33:15;;;;;;;45.88;28.88;;;;;;;8.85;100.00;100842.97;10556449;28;20051;-82
2021/11/13 07:38:16;;;;;;;42.53;27.35;;;;;;;8.95;100.00;100855.19;10579906;28;20046;-82
2021/11/13 07:43:18;;;;;;;47.35;27.55;;;;;;;8.95;100.00;100865.53;10534596;28;20043;-82
2021/11/13 07:48:19;;;;;;;50.55;30.40;;;;;;;8.99;100.00;100876.78;10547682;28;20059;-82
2021/11/13 07:53:21;;;;;;;52.92;31.33;;;;;;;8.99;100.00;100880.25;10562326;28;20050;-82
2021/11/13 07:58:23;;;;;;;51.33;28.70;;;;;;;9.01;100.00;100885.44;10544709;28;20052;-82
2021/11/13 08:03:24;;;;;;;49.22;29.17;;;;;;;9.03;100.00;100884.63;10546532;28;20050;-81
2021/11/13 08:08:26;;;;;;;47.30;29.27;;;;;;;9.10;100.00;100879.59;10539062;28;20494;-81
2021/11/13 08:13:28;;;;;;;47.45;28.95;;;;;;;9.12;100.00;100886.53;10525508;28;20054;-81
2021/11/13 08:18:29;;;;;;;51.03;29.63;;;;;;;9.15;100.00;100886.59;10529515;28;20052;-82
2021/11/13 08:23:32;;;;;;;46.65;28.85;;;;;;;9.20;100.00;100891.88;10572336;28;20067;-81
2021/11/13 08:28:33;;;;;;;49.10;28.02;;;;;;;9.24;100.00;100880.75;10535754;28;20051;-82
2021/11/13 08:33:35;;;;;;;54.30;32.10;;;;;;;9.27;100.00;100873.94;10527074;28;20048;-81
2021/11/13 08:38:37;;;;;;;59.05;32.03;;;;;;;9.35;100.00;100875.81;10547967;28;20522;-81
2021/11/13 08:43:38;;;;;;;43.42;26.23;;;;;;;9.41;100.00;100884.53;10553747;28;20051;-81
2021/11/13 08:48:40;;;;;;;39.55;25.60;;;;;;;9.50;100.00;100894.19;10544104;28;20500;-80
2021/11/13 08:53:43;;;;;;;39.35;26.52;;;;;;;9.48;100.00;100904.50;10540426;28;20059;-80
2021/11/13 08:58:45;;;;;;;39.00;26.45;;;;;;;9.47;100.00;100902.78;10561226;28;20070;-79
2021/11/13 09:03:46;;;;;;;36.38;23.55;;;;;;;9.52;100.00;100908.00;10579487;28;20055;-80
2021/11/13 09:08:50;;;;;;;44.85;27.15;;;;;;;9.58;100.00;100905.53;10560379;28;20055;-79
2021/11/13 09:13:52;;;;;;;51.28;28.95;;;;;;;9.68;100.00;100901.44;10552593;28;20493;-79
2021/11/13 09:18:54;;;;;;;31.90;23.38;;;;;;;9.68;100.00;100914.34;10569759;28;20047;-79
2021/11/13 09:23:57;;;;;;;31.92;22.38;;;;;;;9.75;100.00;100922.25;10583088;28;20044;-79
2021/11/13 09:28:59;;;;;;;37.92;25.92;;;;;;;9.79;100.00;100928.34;10558061;27;20040;-79
2021/11/13 09:34:01;;;;;;;43.05;27.52;;;;;;;9.82;100.00;100938.75;10563192;28;20594;-79
2021/11/13 09:39:04;;;;;;;41.33;27.00;;;;;;;9.88;100.00;100940.59;10574833;28;20039;-77
2021/11/13 09:44:07;;;;;;;33.35;22.73;;;;;;;9.88;100.00;100951.78;10551177;28;20055;-78
2021/11/13 09:49:08;;;;;;;30.83;21.55;;;;;;;9.88;100.00;100956.09;10547029;28;20522;-78
2021/11/13 09:54:10;;;;;;;23.42;17.00;;;;;;;9.86;100.00;100960.34;10540875;28;20157;-78
2021/11/13 09:59:12;;;;;;;27.42;17.38;;;;;;;9.92;100.00;100961.31;10535548;28;20055;-78
2021/11/13 10:04:14;;;;;;;22.55;15.07;;;;;;;9.97;100.00;100959.69;10560404;28;20050;-77
2021/11/13 10:09:16;;;;;;;25.98;17.08;;;;;;;10.01;100.00;100960.63;10575632;28;20047;-78
2021/11/13 10:14:33;;;;;;;33.67;19.58;;;;;;;10.06;100.00;100965.06;10538404;28;20063;-78
2021/11/13 10:19:34;;;;;;;24.63;16.48;;;;;;;10.12;100.00;100969.47;10537854;28;20058;-77
2021/11/13 10:24:43;;;;;;;22.40;14.27;;;;;;;10.18;100.00;100982.50;10538690;28;20044;-77
2021/11/13 10:29:47;;;;;;;22.42;15.65;;;;;;;10.20;100.00;100982.53;10538613;28;20502;-78
2021/11/13 10:34:52;;;;;;;25.15;17.02;;;;;;;10.17;100.00;100985.06;10540460;28;20054;-75
2021/11/13 10:39:59;;;;;;;24.30;15.80;;;;;;;10.30;100.00;100987.06;10579822;28;20395;-75
2021/11/13 10:45:03;;;;;;;19.75;14.10;;;;;;;10.35;100.00;100988.00;10580209;28;20047;-75
2021/11/13 10:50:21;;;;;;;25.40;15.32;;;;;;;10.49;100.00;100988.25;10578512;28;20047;-75
2021/11/13 10:55:24;;;;;;;14.82;9.98;;;;;;;10.46;100.00;100989.06;10579736;28;20051;-75
2021/11/13 11:00:39;;;;;;;10.73;7.93;;;;;;;10.43;100.00;100982.97;10578028;28;20458;-74
2021/11/13 11:05:46;;;;;;;12.57;8.10;;;;;;;10.62;100.00;100985.03;10579471;28;20524;-75
2021/11/13 11:10:48;;;;;;;16.73;9.07;;;;;;;10.62;100.00;100990.22;10570771;28;20466;-75
2021/11/13 11:15:49;;;;;;;13.88;9.55;;;;;;;10.70;100.00;100982.56;10536063;28;20067;-74
2021/11/13 11:20:51;;;;;;;15.05;10.18;;;;;;;10.81;100.00;100989.66;10536697;28;20129;-74
2021/11/13 11:26:12;;;;;;;16.60;11.63;;;;;;;10.96;100.00;100993.34;10550472;28;20061;-74
2021/11/13 11:31:13;;;;;;;13.20;9.48;;;;;;;10.98;100.00;100995.09;10535516;28;20052;-75
2021/11/13 11:36:29;;;;;;;17.52;12.35;;;;;;;11.05;100.00;100993.47;10548978;28;20499;-74
2021/11/13 11:41:31;;;;;;;19.80;12.45;;;;;;;11.02;100.00;100998.63;10577063;28;20416;-75
2021/11/13 11:46:32;;;;;;;16.58;12.02;;;;;;;11.14;100.00;101004.84;10576693;28;20054;-77
2021/11/13 11:51:34;;;;;;;17.95;12.40;;;;;;;11.10;100.00;101004.78;10576592;28;20060;-77
2021/11/13 11:56:36;;;;;;;19.90;13.05;;;;;;;11.21;100.00;101004.94;10577570;28;20059;-77
2021/11/13 12:01:41;;;;;;;19.73;13.35;;;;;;;11.23;100.00;100998.94;10577664;28;20443;-77
2021/11/13 12:06:50;;;;;;;16.48;11.40;;;;;;;11.20;100.00;101005.78;10577477;28;20052;-77
2021/11/13 12:12:12;;;;;;;22.45;11.57;;;;;;;11.18;100.00;101007.50;10558873;28;20048;-78
2021/11/13 12:17:34;;;;;;;17.30;12.07;;;;;;;11.12;100.00;101006.56;10534973;28;20059;-78
2021/11/13 12:22:42;;;;;;;18.48;12.43;;;;;;;11.23;100.00;101000.66;10535410;28;20071;-78
2021/11/13 12:28:08;;;;;;;12.90;8.48;;;;;;;11.26;100.00;101011.94;10534002;28;20048;-77
2021/11/13 12:33:28;;;;;;;14.67;9.97;;;;;;;11.24;100.00;101007.59;10533908;28;20052;-77
2021/11/13 12:38:29;;;;;;;14.32;9.13;;;;;;;11.26;100.00;101011.94;10568219;28;20058;-78
2021/11/13 12:43:54;;;;;;;13.57;8.95;;;;;;;11.28;100.00;101010.22;10575833;28;20048;-77
2021/11/13 12:49:15;;;;;;;17.13;8.70;;;;;;;11.35;100.00;101018.97;10575744;28;20039;-77
2021/11/13 12:54:41;;;;;;;10.65;8.60;;;;;;;11.28;100.00;101022.31;10576928;28;20047;-78
2021/11/13 12:59:55;;;;;;;15.05;9.48;;;;;;;11.42;100.00;101020.81;10566367;28;20055;-77
2021/11/13 13:04:57;;;;;;;11.95;9.13;;;;;;;11.56;100.00;101018.38;10584344;28;20043;-78
2021/11/13 13:10:08;;;;;;;15.00;8.63;;;;;;;11.60;100.00;101026.22;10582532;28;20044;-77
2021/11/13 13:15:17;;;;;;;15.25;10.63;;;;;;;11.39;100.00;101039.75;10540235;28;20055;-77
2021/11/13 13:20:27;;;;;;;11.68;9.18;;;;;;;11.29;100.00;101035.31;10540258;28;20054;-77
2021/11/13 13:25:30;;;;;;;14.02;9.40;;;;;;;11.21;100.00;101042.06;10555087;28;20408;-77
2021/11/13 13:30:34;;;;;;;15.60;9.25;;;;;;;11.25;100.00;101046.44;10539570;28;20524;-77
2021/11/13 13:35:38;;;;;;;10.27;7.80;;;;;;;11.21;100.00;101043.78;10548252;28;20054;-77
2021/11/13 13:40:43;;;;;;;13.63;8.88;;;;;;;11.28;100.00;101054.25;10582692;28;20047;-77
2021/11/13 13:46:06;;;;;;;12.93;8.43;;;;;;;11.33;100.00;101052.59;10556345;28;20411;-77
2021/11/13 13:51:36;;;;;;;13.68;8.70;;;;;;;11.31;100.00;101063.81;10565466;28;20059;-77
2021/11/13 13:56:50;;;;;;;12.05;9.10;;;;;;;11.19;100.00;101068.81;10549331;28;20052;-77
2021/11/13 14:02:02;;;;;;;11.52;8.02;;;;;;;11.26;100.00;101066.31;10521899;28;20055;-78
2021/11/13 14:07:07;;;;;;;14.15;9.00;;;;;;;11.23;100.00;101063.69;10521685;28;20066;-78
2021/11/13 14:12:08;;;;;;;9.57;6.78;;;;;;;11.28;100.00;101067.19;10540201;28;20514;-78
2021/11/13 14:17:20;;;;;;;9.55;6.93;;;;;;;11.39;100.00;101059.59;10518712;28;20048;-78
2021/11/13 14:22:22;;;;;;;8.63;6.55;;;;;;;11.31;100.00;101068.97;10518717;28;20074;-77
2021/11/13 14:27:23;;;;;;;7.07;5.50;;;;;;;11.11;100.00;101079.00;10536705;28;20056;-77
2021/11/13 14:32:25;;;;;;;6.30;4.72;;;;;;;11.04;100.00;101075.47;10535541;28;20055;-77
2021/11/13 14:37:30;;;;;;;9.93;5.57;;;;;;;10.96;100.00;101083.97;10541909;28;20051;-77
2021/11/13 14:42:36;;;;;;;7.72;5.82;;;;;;;10.78;100.00;101087.97;10560038;28;20063;-77
2021/11/13 14:47:41;;;;;;;7.25;5.93;;;;;;;10.69;100.00;101094.69;10576511;28;20491;-77
2021/11/13 14:52:49;;;;;;;6.55;4.75;;;;;;;10.39;100.00;101105.34;10559167;28;20070;-77
2021/11/13 14:57:57;;;;;;;6.07;5.10;;;;;;;10.22;100.00;101121.34;10558273;28;20063;-77
2021/11/13 15:03:19;;;;;;;6.57;5.57;;;;;;;10.20;100.00;101124.72;10556510;28;20052;-77
2021/11/13 15:08:37;;;;;;;6.47;5.20;;;;;;;10.08;100.00;101139.13;10534374;28;20052;-77
2021/11/13 15:13:41;;;;;;;7.82;5.07;;;;;;;9.90;100.00;101138.75;10520122;28;20048;-77
2021/11/13 15:18:49;;;;;;;4.85;4.35;;;;;;;9.80;100.00;101158.31;10533778;28;20048;-77
2021/11/13 15:23:51;;;;;;;7.38;5.30;;;;;;;9.59;100.00;101163.00;10533267;28;20068;-77
2021/11/13 15:29:13;;;;;;;8.93;5.90;;;;;;;9.38;100.00;101160.78;10534520;28;20044;-77
2021/11/13 15:34:50;;;;;;;5.65;5.13;;;;;;;9.40;100.00;101169.41;10536504;28;20052;-77
2021/11/13 15:40:17;;;;;;;7.43;5.13;;;;;;;9.36;100.00;101167.63;10474285;28;20119;-77
2021/11/13 15:45:22;;;;;;;9.25;5.65;;;;;;;9.25;100.00;101187.13;10549783;28;20464;-77
2021/11/13 15:50:24;;;;;;;10.43;5.35;;;;;;;9.15;100.00;101191.16;10517666;28;20051;-77
2021/11/13 15:55:40;;;;;;;;;;;;;;;9.11;100.00;101204.81;10517736;28;20122;-77
2021/11/13 16:00:42;;;;;;;8.90;5.68;;;;;;;9.11;100.00;101207.41;10545891;28;19990;-77
2021/11/13 16:05:44;;;;;;;6.95;5.80;;;;;;;9.06;100.00;101208.09;10533747;28;20109;-77
2021/11/13 16:10:47;;;;;;;16.30;9.90;;;;;;;9.19;100.00;101203.31;10518294;28;20044;-76
2021/11/13 16:15:48;;;;;;;10.15;7.53;;;;;;;9.14;100.00;101228.13;10533073;28;20496;-76
2021/11/13 16:20:50;;;;;;;18.40;11.43;;;;;;;9.19;100.00;101225.66;10532627;28;20044;-76
2021/11/13 16:25:54;;;;;;;13.60;11.00;;;;;;;8.85;100.00;101232.50;10532895;28;20059;-76
2021/11/13 16:31:00;;;;;;;8.25;5.10;;;;;;;8.72;100.00;101236.41;10533204;28;20431;-76
2021/11/13 16:36:03;;;;;;;7.47;5.23;;;;;;;8.63;100.00;101250.78;10528950;28;20081;-76
2021/11/13 16:41:14;;;;;;;11.00;6.93;;;;;;;8.70;100.00;101247.53;10568513;28;20055;-77
2021/11/13 16:46:18;;;;;;;9.38;6.72;;;;;;;8.64;100.00;101255.09;10538873;28;20056;-77
2021/11/13 16:51:25;;;;;;;11.05;5.97;;;;;;;8.52;100.00;101265.06;10521430;28;20098;-77
2021/11/13 16:56:28;;;;;;;8.10;5.05;;;;;;;8.48;100.00;101274.41;10542302;28;20063;-76
2021/11/13 17:01:31;;;;;;;8.85;6.00;;;;;;;8.52;100.00;101289.13;10524067;28;20048;-76
2021/11/13 17:06:35;;;;;;;5.75;4.47;;;;;;;8.53;100.00;101290.00;10542059;28;20109;-76
2021/11/13 17:11:42;;;;;;;9.60;5.75;;;;;;;8.52;100.00;101298.59;10545661;28;20055;-76
2021/11/13 17:16:45;;;;;;;7.03;4.43;;;;;;;8.54;100.00;101305.53;10541718;28;20131;-76
2021/11/13 17:21:48;;;;;;;14.45;9.10;;;;;;;8.57;100.00;101303.06;10537620;28;20055;-76
2021/11/13 17:26:50;;;;;;;23.17;15.30;;;;;;;8.68;100.00;101311.97;10542222;28;20058;-76
2021/11/13 17:31:52;;;;;;;37.13;22.13;;;;;;;8.75;100.00;101319.06;10523400;28;20062;-76
2021/11/13 17:36:54;;;;;;;40.30;23.08;;;;;;;8.74;100.00;101319.91;10542347;28;20499;-76
2021/11/13 17:41:56;;;;;;;35.65;24.20;;;;;;;8.71;100.00;101330.13;10583082;28;20051;-76
2021/11/13 17:46:57;;;;;;;40.22;26.98;;;;;;;8.70;100.00;101333.53;10582368;28;20491;-76
2021/11/13 17:51:59;;;;;;;39.47;26.02;;;;;;;8.65;100.00;101329.94;10582331;28;20055;-76
2021/11/13 17:57:01;;;;;;;46.35;32.15;;;;;;;8.63;100.00;101341.91;10582450;28;20079;-76
2021/11/13 18:02:03;;;;;;;49.97;34.17;;;;;;;8.57;100.00;101339.16;10581598;28;20511;-76
2021/11/13 18:07:05;;;;;;;51.83;36.70;;;;;;;8.46;100.00;101350.84;10564149;28;20052;-76
2021/11/13 18:12:09;;;;;;;78.43;46.72;;;;;;;8.38;100.00;101350.56;10543852;28;20054;-77
2021/11/13 18:17:10;;;;;;;55.83;34.78;;;;;;;8.27;100.00;101362.22;10521045;28;20055;-76
2021/11/13 18:22:12;;;;;;;48.83;31.85;;;;;;;8.10;100.00;101359.06;10526510;28;20079;-76
2021/11/13 18:27:14;;;;;;;40.75;29.73;;;;;;;8.05;100.00;101365.78;10529239;28;20110;-76
2021/11/13 18:32:16;;;;;;;20.95;14.23;;;;;;;7.89;100.00;101369.56;10520798;28;20415;-76
2021/11/13 18:37:17;;;;;;;18.45;10.43;;;;;;;7.78;100.00;101377.75;10561349;28;20048;-76
2021/11/13 18:42:19;;;;;;;19.45;11.63;;;;;;;7.68;100.00;101366.25;10580277;28;20047;-76
2021/11/13 18:47:21;;;;;;;12.70;8.80;;;;;;;7.55;100.00;101382.97;10562984;28;20398;-76
2021/11/13 18:52:22;;;;;;;15.25;7.68;;;;;;;7.54;100.00;101382.88;10561872;28;20051;-76
2021/11/13 18:57:24;;;;;;;10.23;6.40;;;;;;;7.43;100.00;101377.34;10579745;28;20142;-76
2021/11/13 19:02:26;;;;;;;10.07;7.05;;;;;;;7.47;100.00;101386.06;10579412;28;20047;-76
2021/11/13 19:07:28;;;;;;;12.75;8.40;;;;;;;7.53;100.00;101391.44;10579340;28;20139;-76
2021/11/13 19:12:29;;;;;;;10.65;7.68;;;;;;;7.47;100.00;101402.38;10556513;28;20044;-76
2021/11/13 19:17:31;;;;;;;12.27;7.32;;;;;;;7.38;100.00;101412.38;10537563;28;20139;-76
2021/11/13 19:22:33;;;;;;;14.82;7.45;;;;;;;7.45;100.00;101424.63;10537071;28;20048;-76
2021/11/13 19:27:35;;;;;;;8.85;7.28;;;;;;;7.39;100.00;101420.13;10518565;28;20077;-76
2021/11/13 19:32:37;;;;;;;8.60;7.38;;;;;;;7.32;100.00;101425.88;10532307;28;20381;-76
2021/11/13 19:37:38;;;;;;;12.05;7.63;;;;;;;7.22;100.00;101421.22;10575696;28;20457;-75
2021/11/13 19:42:46;;;;;;;11.73;7.68;;;;;;;7.06;100.00;101430.03;10560237;28;20047;-75
2021/11/13 19:47:48;;;;;;;10.80;7.70;;;;;;;7.13;100.00;101426.00;10578317;28;20240;-75
2021/11/13 19:52:51;;;;;;;15.27;10.00;;;;;;;7.24;100.00;101423.81;10550069;28;20055;-76
2021/11/13 19:57:54;;;;;;;16.08;10.00;;;;;;;7.33;100.00;101434.47;10546810;28;20066;-75
2021/11/13 20:02:56;;;;;;;13.43;10.15;;;;;;;7.29;100.00;101448.91;10550608;28;20051;-76
2021/11/13 20:07:59;;;;;;;10.70;8.02;;;;;;;7.30;100.00;101449.78;10542020;28;20075;-76
2021/11/13 20:13:01;;;;;;;13.77;8.43;;;;;;;7.32;100.00;101455.91;10565955;28;20044;-76
2021/11/13 20:18:03;;;;;;;12.55;9.05;;;;;;;7.36;100.00;101453.47;10567572;28;20043;-76
2021/11/13 20:23:05;;;;;;;44.58;31.02;;;;;;;7.44;100.00;101459.78;10548702;28;20044;-76
2021/11/13 20:28:06;;;;;;;26.17;18.50;;;;;;;7.47;100.00;101464.16;10571136;28;20047;-76
2021/11/13 20:33:08;;;;;;;21.23;15.57;;;;;;;7.35;100.00;101469.72;10560281;28;20046;-76
2021/11/13 20:38:14;;;;;;;16.05;11.55;;;;;;;7.38;100.00;101476.72;10562727;28;20047;-76
2021/11/13 20:43:18;;;;;;;23.27;12.02;;;;;;;7.36;100.00;101484.34;10565078;28;20047;-76
2021/11/13 20:48:20;;;;;;;27.33;17.48;;;;;;;7.44;100.00;101497.53;10536628;28;20685;-76
2021/11/13 20:53:22;;;;;;;26.85;18.90;;;;;;;7.45;100.00;101499.28;10540100;28;20136;-76
2021/11/13 20:58:24;;;;;;;24.50;16.75;;;;;;;7.45;100.00;101499.28;10540596;28;20062;-76
2021/11/13 21:03:25;;;;;;;24.55;17.52;;;;;;;7.47;100.00;101510.50;10541817;28;20059;-76
2021/11/13 21:08:27;;;;;;;35.20;21.70;;;;;;;7.48;100.00;101517.41;10540878;28;20048;-76
2021/11/13 21:13:29;;;;;;;30.17;19.23;;;;;;;7.43;100.00;101519.81;10532685;28;20101;-76
2021/11/13 21:18:31;;;;;;;26.30;16.15;;;;;;;7.35;100.00;101521.22;10541018;28;20126;-76
2021/11/13 21:23:34;;;;;;;21.70;12.88;;;;;;;7.34;100.00;101529.75;10540345;28;20052;-76
2021/11/13 21:28:35;;;;;;;18.63;11.98;;;;;;;7.38;100.00;101529.06;10541305;28;20075;-76
2021/11/13 21:33:37;;;;;;;27.27;15.70;;;;;;;7.40;100.00;101534.25;10523417;28;20131;-76
2021/11/13 21:38:39;;;;;;;25.75;14.75;;;;;;;7.44;100.00;101531.00;10571388;28;20424;-76
2021/11/13 21:43:44;;;;;;;44.13;18.98;;;;;;;7.42;100.00;101546.34;10582585;28;20079;-76
2021/11/13 21:48:46;;;;;;;36.72;14.75;;;;;;;7.37;100.00;101544.41;10583496;28;20048;-76
2021/11/13 21:53:50;;;;;;;46.53;14.55;;;;;;;7.39;100.00;101543.69;10582580;28;20048;-76
2021/11/13 21:58:52;;;;;;;44.63;15.18;;;;;;;7.35;100.00;101543.50;10581717;28;20066;-76
2021/11/13 22:03:53;;;;;;;57.95;15.88;;;;;;;7.36;100.00;101548.69;10563741;28;20059;-76
2021/11/13 22:08:57;;;;;;;46.92;18.02;;;;;;;7.36;100.00;101547.81;10578781;28;20048;-76
2021/11/13 22:13:59;;;;;;;74.75;21.13;;;;;;;7.39;100.00;101547.94;10542873;28;20283;-76
2021/11/13 22:19:02;;;;;;;84.38;21.33;;;;;;;7.39;100.00;101551.41;10572175;28;20472;-76
2021/11/13 22:24:09;;;;;;;63.08;20.77;;;;;;;7.35;100.00;101552.09;10574636;28;20126;-76
2021/11/13 22:29:10;;;;;;;52.58;21.85;;;;;;;7.36;100.00;101556.41;10580552;28;20071;-76
2021/11/13 22:34:12;;;;;;;51.33;21.02;;;;;;;7.32;100.00;101557.13;10580204;28;20044;-76
2021/11/13 22:39:15;;;;;;;35.92;19.40;;;;;;;7.35;100.00;101569.22;10580484;28;20176;-76
2021/11/13 22:44:17;;;;;;;37.08;17.77;;;;;;;7.34;100.00;101570.94;10581072;28;20059;-76
2021/11/13 22:49:19;;;;;;;43.60;22.13;;;;;;;7.35;100.00;101566.66;10580299;28;20046;-76
2021/11/13 22:54:21;;;;;;;46.85;24.65;;;;;;;7.41;100.00;101557.47;10580205;28;20048;-76